sensor_id;sensor_type;location;lat;lon;timestamp;temperature;humidity
2897;DHT22;1458;49.728;9.228;2024-02-04T00:02:15;9.10;99.90
2897;DHT22;1458;49.728;9.228;2024-02-04T00:04:43;9.20;99.90
2897;DHT22;1458;49.728;9.228;2024-02-04T00:07:10;9.20;99.90
2897;DHT22;1458;49.728;9.228;2024-02-04T00:09:39;9.10;99.90
2897;DHT22;1458;49.728;9.228;2024-02-04T00:12:07;9.10;99.90
2897;DHT22;1458;49.728;9.228;2024-02-04T00:14:34;9.20;99.90
2897;DHT22;1458;49.728;9.228;2024-02-04T00:17:02;9.20;99.90
2897;DHT22;1458;49.728;9.228;2024-02-04T00:19:30;9.20;99.90
2897;DHT22;1458;49.728;9.228;2024-02-04T00:21:57;9.20;99.90
2897;DHT22;1458;49.728;9.228;2024-02-04T00:24:24;9.20;99.90
2897;DHT22;1458;49.728;9.228;2024-02-04T00:26:53;9.30;99.90
2897;DHT22;1458;49.728;9.228;2024-02-04T00:29:20;9.30;99.90
2897;DHT22;1458;49.728;9.228;2024-02-04T00:31:48;9.30;99.90
2897;DHT22;1458;49.728;9.228;2024-02-04T00:34:15;9.30;99.90
2897;DHT22;1458;49.728;9.228;2024-02-04T00:36:43;9.30;99.90
2897;DHT22;1458;49.728;9.228;2024-02-04T00:39:10;9.40;99.90
2897;DHT22;1458;49.728;9.228;2024-02-04T00:41:37;9.50;99.90
2897;DHT22;1458;49.728;9.228;2024-02-04T00:44:06;9.50;99.90
2897;DHT22;1458;49.728;9.228;2024-02-04T00:46:34;9.50;99.90
2897;DHT22;1458;49.728;9.228;2024-02-04T00:49:01;9.40;99.90
2897;DHT22;1458;49.728;9.228;2024-02-04T00:51:28;9.50;99.90
2897;DHT22;1458;49.728;9.228;2024-02-04T00:53:56;9.50;99.90
2897;DHT22;1458;49.728;9.228;2024-02-04T00:56:23;9.40;99.90
2897;DHT22;1458;49.728;9.228;2024-02-04T00:58:51;9.50;99.90
2897;DHT22;1458;49.728;9.228;2024-02-04T01:01:20;9.50;99.90
2897;DHT22;1458;49.728;9.228;2024-02-04T01:03:47;9.40;99.90
2897;DHT22;1458;49.728;9.228;2024-02-04T01:06:14;9.50;99.90
2897;DHT22;1458;49.728;9.228;2024-02-04T01:08:42;9.50;99.90
2897;DHT22;1458;49.728;9.228;2024-02-04T01:11:09;9.50;99.90
2897;DHT22;1458;49.728;9.228;2024-02-04T01:13:37;9.50;99.90
2897;DHT22;1458;49.728;9.228;2024-02-04T01:16:05;9.50;99.90
2897;DHT22;1458;49.728;9.228;2024-02-04T01:18:33;9.50;99.90
2897;DHT22;1458;49.728;9.228;2024-02-04T01:21:01;9.50;99.90
2897;DHT22;1458;49.728;9.228;2024-02-04T01:23:28;9.40;99.90
2897;DHT22;1458;49.728;9.228;2024-02-04T01:25:55;9.60;99.90
2897;DHT22;1458;49.728;9.228;2024-02-04T01:28:23;9.60;99.90
2897;DHT22;1458;49.728;9.228;2024-02-04T01:30:50;9.50;99.90
2897;DHT22;1458;49.728;9.228;2024-02-04T01:33:18;9.50;99.90
2897;DHT22;1458;49.728;9.228;2024-02-04T01:35:46;9.60;99.90
2897;DHT22;1458;49.728;9.228;2024-02-04T01:38:14;9.60;99.90
2897;DHT22;1458;49.728;9.228;2024-02-04T01:40:41;9.50;99.90
2897;DHT22;1458;49.728;9.228;2024-02-04T01:43:09;9.50;99.90
2897;DHT22;1458;49.728;9.228;2024-02-04T01:45:36;9.50;99.90
2897;DHT22;1458;49.728;9.228;2024-02-04T01:48:05;9.50;99.90
2897;DHT22;1458;49.728;9.228;2024-02-04T01:50:33;9.50;99.90
2897;DHT22;1458;49.728;9.228;2024-02-04T01:53:02;9.50;99.90
2897;DHT22;1458;49.728;9.228;2024-02-04T01:55:30;9.60;99.90
2897;DHT22;1458;49.728;9.228;2024-02-04T01:57:58;9.60;99.90
2897;DHT22;1458;49.728;9.228;2024-02-04T02:00:25;9.50;99.90
2897;DHT22;1458;49.728;9.228;2024-02-04T02:03:13;9.50;99.90
2897;DHT22;1458;49.728;9.228;2024-02-04T02:05:41;9.50;99.90
2897;DHT22;1458;49.728;9.228;2024-02-04T02:08:10;9.40;99.90
2897;DHT22;1458;49.728;9.228;2024-02-04T02:10:37;9.50;99.90
2897;DHT22;1458;49.728;9.228;2024-02-04T02:13:14;9.40;99.90
2897;DHT22;1458;49.728;9.228;2024-02-04T02:15:49;9.40;99.90
2897;DHT22;1458;49.728;9.228;2024-02-04T02:18:23;9.40;99.90
2897;DHT22;1458;49.728;9.228;2024-02-04T02:21:08;9.50;99.90
2897;DHT22;1458;49.728;9.228;2024-02-04T02:23:52;9.50;99.90
2897;DHT22;1458;49.728;9.228;2024-02-04T02:26:26;9.40;99.90
2897;DHT22;1458;49.728;9.228;2024-02-04T02:28:54;9.40;99.90
2897;DHT22;1458;49.728;9.228;2024-02-04T02:31:22;9.50;99.90
2897;DHT22;1458;49.728;9.228;2024-02-04T02:33:49;9.50;99.90
2897;DHT22;1458;49.728;9.228;2024-02-04T02:36:20;9.50;99.90
2897;DHT22;1458;49.728;9.228;2024-02-04T02:38:55;9.40;99.90
2897;DHT22;1458;49.728;9.228;2024-02-04T02:41:30;9.40;99.90
2897;DHT22;1458;49.728;9.228;2024-02-04T02:43:59;9.40;99.90
2897;DHT22;1458;49.728;9.228;2024-02-04T02:46:27;9.30;99.90
2897;DHT22;1458;49.728;9.228;2024-02-04T02:48:55;9.10;99.90
2897;DHT22;1458;49.728;9.228;2024-02-04T02:51:23;9.10;99.90
2897;DHT22;1458;49.728;9.228;2024-02-04T02:53:50;9.00;99.90
2897;DHT22;1458;49.728;9.228;2024-02-04T02:56:18;9.00;99.90
2897;DHT22;1458;49.728;9.228;2024-02-04T02:58:47;9.00;99.90
2897;DHT22;1458;49.728;9.228;2024-02-04T03:01:14;8.90;99.90
2897;DHT22;1458;49.728;9.228;2024-02-04T03:03:43;8.90;99.90
2897;DHT22;1458;49.728;9.228;2024-02-04T03:06:14;8.90;99.90
2897;DHT22;1458;49.728;9.228;2024-02-04T03:08:41;8.90;99.90
2897;DHT22;1458;49.728;9.228;2024-02-04T03:11:08;8.90;99.90
2897;DHT22;1458;49.728;9.228;2024-02-04T03:13:38;8.90;99.90
2897;DHT22;1458;49.728;9.228;2024-02-04T03:16:11;8.90;99.90
2897;DHT22;1458;49.728;9.228;2024-02-04T03:18:39;9.00;99.90
2897;DHT22;1458;49.728;9.228;2024-02-04T03:21:12;8.90;99.90
2897;DHT22;1458;49.728;9.228;2024-02-04T03:23:41;8.90;99.90
2897;DHT22;1458;49.728;9.228;2024-02-04T03:26:09;9.00;99.90
2897;DHT22;1458;49.728;9.228;2024-02-04T03:28:37;9.10;99.90
2897;DHT22;1458;49.728;9.228;2024-02-04T03:31:05;9.10;99.90
2897;DHT22;1458;49.728;9.228;2024-02-04T03:33:33;9.00;99.90
2897;DHT22;1458;49.728;9.228;2024-02-04T03:36:01;9.10;99.90
2897;DHT22;1458;49.728;9.228;2024-02-04T03:38:28;9.00;99.90
2897;DHT22;1458;49.728;9.228;2024-02-04T03:40:56;9.00;99.90
2897;DHT22;1458;49.728;9.228;2024-02-04T03:43:23;8.90;99.90
2897;DHT22;1458;49.728;9.228;2024-02-04T03:45:51;8.90;99.90
2897;DHT22;1458;49.728;9.228;2024-02-04T03:48:18;8.80;99.90
2897;DHT22;1458;49.728;9.228;2024-02-04T03:50:47;8.80;99.90
2897;DHT22;1458;49.728;9.228;2024-02-04T03:53:14;8.90;99.90
2897;DHT22;1458;49.728;9.228;2024-02-04T03:55:42;8.90;99.90
2897;DHT22;1458;49.728;9.228;2024-02-04T03:58:09;8.80;99.90
2897;DHT22;1458;49.728;9.228;2024-02-04T04:00:36;8.80;99.90
2897;DHT22;1458;49.728;9.228;2024-02-04T04:03:04;8.90;99.90
2897;DHT22;1458;49.728;9.228;2024-02-04T04:05:31;8.90;99.90
2897;DHT22;1458;49.728;9.228;2024-02-04T04:08:00;8.90;99.90
2897;DHT22;1458;49.728;9.228;2024-02-04T04:10:27;9.00;99.90
2897;DHT22;1458;49.728;9.228;2024-02-04T04:12:55;9.00;99.90
2897;DHT22;1458;49.728;9.228;2024-02-04T04:15:22;9.00;99.90
2897;DHT22;1458;49.728;9.228;2024-02-04T04:17:50;9.00;99.90
2897;DHT22;1458;49.728;9.228;2024-02-04T04:20:17;9.00;99.90
2897;DHT22;1458;49.728;9.228;2024-02-04T04:22:45;9.00;99.90
2897;DHT22;1458;49.728;9.228;2024-02-04T04:25:14;8.90;99.90
2897;DHT22;1458;49.728;9.228;2024-02-04T04:27:42;8.80;99.90
2897;DHT22;1458;49.728;9.228;2024-02-04T04:30:11;8.80;99.90
2897;DHT22;1458;49.728;9.228;2024-02-04T04:32:38;8.80;99.90
2897;DHT22;1458;49.728;9.228;2024-02-04T04:35:06;8.80;99.90
2897;DHT22;1458;49.728;9.228;2024-02-04T04:37:34;8.80;99.90
2897;DHT22;1458;49.728;9.228;2024-02-04T04:40:01;8.80;99.90
2897;DHT22;1458;49.728;9.228;2024-02-04T04:42:30;8.80;99.90
2897;DHT22;1458;49.728;9.228;2024-02-04T04:44:58;8.90;99.90
2897;DHT22;1458;49.728;9.228;2024-02-04T04:47:25;8.90;99.90
2897;DHT22;1458;49.728;9.228;2024-02-04T04:49:52;8.80;99.90
2897;DHT22;1458;49.728;9.228;2024-02-04T04:52:20;8.80;99.90
2897;DHT22;1458;49.728;9.228;2024-02-04T04:54:48;8.80;99.90
2897;DHT22;1458;49.728;9.228;2024-02-04T04:57:16;8.90;99.90
2897;DHT22;1458;49.728;9.228;2024-02-04T04:59:45;9.00;99.90
2897;DHT22;1458;49.728;9.228;2024-02-04T05:02:12;9.00;99.90
2897;DHT22;1458;49.728;9.228;2024-02-04T05:04:42;9.00;99.90
2897;DHT22;1458;49.728;9.228;2024-02-04T05:07:10;9.00;99.90
2897;DHT22;1458;49.728;9.228;2024-02-04T05:09:38;9.00;99.90
2897;DHT22;1458;49.728;9.228;2024-02-04T05:12:09;9.00;99.90
2897;DHT22;1458;49.728;9.228;2024-02-04T05:14:36;9.00;99.90
2897;DHT22;1458;49.728;9.228;2024-02-04T05:17:05;9.00;99.90
2897;DHT22;1458;49.728;9.228;2024-02-04T05:19:33;9.10;99.90
2897;DHT22;1458;49.728;9.228;2024-02-04T05:22:00;9.10;99.90
2897;DHT22;1458;49.728;9.228;2024-02-04T05:24:28;9.10;99.90
2897;DHT22;1458;49.728;9.228;2024-02-04T05:26:56;9.00;99.90
2897;DHT22;1458;49.728;9.228;2024-02-04T05:29:23;9.10;99.90
2897;DHT22;1458;49.728;9.228;2024-02-04T05:31:51;9.20;99.90
2897;DHT22;1458;49.728;9.228;2024-02-04T05:34:19;9.20;99.90
2897;DHT22;1458;49.728;9.228;2024-02-04T05:36:47;9.20;99.90
2897;DHT22;1458;49.728;9.228;2024-02-04T05:39:15;9.20;99.90
2897;DHT22;1458;49.728;9.228;2024-02-04T05:41:43;9.20;99.90
2897;DHT22;1458;49.728;9.228;2024-02-04T05:44:11;9.30;99.90
2897;DHT22;1458;49.728;9.228;2024-02-04T05:46:38;9.10;99.90
2897;DHT22;1458;49.728;9.228;2024-02-04T05:49:06;9.20;99.90
2897;DHT22;1458;49.728;9.228;2024-02-04T05:51:37;9.20;99.90
2897;DHT22;1458;49.728;9.228;2024-02-04T05:54:06;9.20;99.90
2897;DHT22;1458;49.728;9.228;2024-02-04T05:56:34;9.20;99.90
2897;DHT22;1458;49.728;9.228;2024-02-04T05:59:01;9.20;99.90
2897;DHT22;1458;49.728;9.228;2024-02-04T06:01:29;9.20;99.90
2897;DHT22;1458;49.728;9.228;2024-02-04T06:03:56;9.20;99.90
2897;DHT22;1458;49.728;9.228;2024-02-04T06:06:24;9.20;99.90
2897;DHT22;1458;49.728;9.228;2024-02-04T06:08:52;9.20;99.90
2897;DHT22;1458;49.728;9.228;2024-02-04T06:11:20;9.30;99.90
2897;DHT22;1458;49.728;9.228;2024-02-04T06:13:46;9.30;99.90
2897;DHT22;1458;49.728;9.228;2024-02-04T06:16:14;9.30;99.90
2897;DHT22;1458;49.728;9.228;2024-02-04T06:18:42;9.30;99.90
2897;DHT22;1458;49.728;9.228;2024-02-04T06:21:09;9.20;99.90
2897;DHT22;1458;49.728;9.228;2024-02-04T06:23:38;9.20;99.90
2897;DHT22;1458;49.728;9.228;2024-02-04T06:26:07;9.30;99.90
2897;DHT22;1458;49.728;9.228;2024-02-04T06:28:35;9.30;99.90
2897;DHT22;1458;49.728;9.228;2024-02-04T06:31:02;9.30;99.90
2897;DHT22;1458;49.728;9.228;2024-02-04T06:33:30;9.30;99.90
2897;DHT22;1458;49.728;9.228;2024-02-04T06:35:57;9.30;99.90
2897;DHT22;1458;49.728;9.228;2024-02-04T06:38:25;9.30;99.90
2897;DHT22;1458;49.728;9.228;2024-02-04T06:40:52;9.30;99.90
2897;DHT22;1458;49.728;9.228;2024-02-04T06:43:21;9.30;99.90
2897;DHT22;1458;49.728;9.228;2024-02-04T06:45:48;9.30;99.90
2897;DHT22;1458;49.728;9.228;2024-02-04T06:48:19;9.30;99.90
2897;DHT22;1458;49.728;9.228;2024-02-04T06:50:46;9.30;99.90
2897;DHT22;1458;49.728;9.228;2024-02-04T06:53:14;9.30;99.90
2897;DHT22;1458;49.728;9.228;2024-02-04T06:55:41;9.30;99.90
2897;DHT22;1458;49.728;9.228;2024-02-04T06:58:09;9.30;99.90
2897;DHT22;1458;49.728;9.228;2024-02-04T07:00:37;9.30;99.90
2897;DHT22;1458;49.728;9.228;2024-02-04T07:03:05;9.30;99.90
2897;DHT22;1458;49.728;9.228;2024-02-04T07:05:32;9.30;99.90
2897;DHT22;1458;49.728;9.228;2024-02-04T07:08:00;9.30;99.90
2897;DHT22;1458;49.728;9.228;2024-02-04T07:10:27;9.30;99.90
2897;DHT22;1458;49.728;9.228;2024-02-04T07:12:54;9.30;99.90
2897;DHT22;1458;49.728;9.228;2024-02-04T07:15:22;9.30;99.90
2897;DHT22;1458;49.728;9.228;2024-02-04T07:17:51;9.30;99.90
2897;DHT22;1458;49.728;9.228;2024-02-04T07:20:18;9.30;99.90
2897;DHT22;1458;49.728;9.228;2024-02-04T07:22:46;9.30;99.90
2897;DHT22;1458;49.728;9.228;2024-02-04T07:25:13;9.20;99.90
2897;DHT22;1458;49.728;9.228;2024-02-04T07:27:40;9.10;99.90
2897;DHT22;1458;49.728;9.228;2024-02-04T07:30:08;9.10;99.90
2897;DHT22;1458;49.728;9.228;2024-02-04T07:32:36;9.10;99.90
2897;DHT22;1458;49.728;9.228;2024-02-04T07:35:05;9.10;99.90
2897;DHT22;1458;49.728;9.228;2024-02-04T07:37:34;9.00;99.90
2897;DHT22;1458;49.728;9.228;2024-02-04T07:40:02;9.00;99.90
2897;DHT22;1458;49.728;9.228;2024-02-04T07:42:31;9.00;99.90
2897;DHT22;1458;49.728;9.228;2024-02-04T07:44:58;9.10;99.90
2897;DHT22;1458;49.728;9.228;2024-02-04T07:47:27;9.10;99.90
2897;DHT22;1458;49.728;9.228;2024-02-04T07:49:54;9.10;99.90
2897;DHT22;1458;49.728;9.228;2024-02-04T07:52:23;9.10;99.90
2897;DHT22;1458;49.728;9.228;2024-02-04T07:54:50;9.20;99.90
2897;DHT22;1458;49.728;9.228;2024-02-04T07:57:18;9.20;99.90
2897;DHT22;1458;49.728;9.228;2024-02-04T07:59:45;9.30;99.90
2897;DHT22;1458;49.728;9.228;2024-02-04T08:02:13;9.30;99.90
2897;DHT22;1458;49.728;9.228;2024-02-04T08:04:40;9.30;99.90
2897;DHT22;1458;49.728;9.228;2024-02-04T08:07:08;9.30;99.90
2897;DHT22;1458;49.728;9.228;2024-02-04T08:09:37;9.30;99.90
2897;DHT22;1458;49.728;9.228;2024-02-04T08:12:05;9.30;99.90
2897;DHT22;1458;49.728;9.228;2024-02-04T08:14:33;9.30;99.90
2897;DHT22;1458;49.728;9.228;2024-02-04T08:17:00;9.30;99.90
2897;DHT22;1458;49.728;9.228;2024-02-04T08:19:28;9.30;99.90
2897;DHT22;1458;49.728;9.228;2024-02-04T08:21:55;9.30;99.90
2897;DHT22;1458;49.728;9.228;2024-02-04T08:24:23;9.30;99.90
2897;DHT22;1458;49.728;9.228;2024-02-04T08:26:52;9.40;99.90
2897;DHT22;1458;49.728;9.228;2024-02-04T08:29:20;9.50;99.90
2897;DHT22;1458;49.728;9.228;2024-02-04T08:31:47;9.50;99.90
2897;DHT22;1458;49.728;9.228;2024-02-04T08:34:15;9.50;99.90
2897;DHT22;1458;49.728;9.228;2024-02-04T08:36:42;9.60;99.90
2897;DHT22;1458;49.728;9.228;2024-02-04T08:39:09;9.50;99.90
2897;DHT22;1458;49.728;9.228;2024-02-04T08:41:37;9.50;99.90
2897;DHT22;1458;49.728;9.228;2024-02-04T08:44:06;9.50;99.90
2897;DHT22;1458;49.728;9.228;2024-02-04T08:46:33;9.60;99.90
2897;DHT22;1458;49.728;9.228;2024-02-04T08:49:00;9.60;99.90
2897;DHT22;1458;49.728;9.228;2024-02-04T08:51:28;9.50;99.90
2897;DHT22;1458;49.728;9.228;2024-02-04T08:53:55;9.60;99.90
2897;DHT22;1458;49.728;9.228;2024-02-04T08:56:23;9.60;99.90
2897;DHT22;1458;49.728;9.228;2024-02-04T08:58:50;9.80;99.90
2897;DHT22;1458;49.728;9.228;2024-02-04T09:01:19;9.60;99.90
2897;DHT22;1458;49.728;9.228;2024-02-04T09:03:47;9.60;99.90
2897;DHT22;1458;49.728;9.228;2024-02-04T09:06:14;9.70;99.90
2897;DHT22;1458;49.728;9.228;2024-02-04T09:08:42;9.70;99.90
2897;DHT22;1458;49.728;9.228;2024-02-04T09:11:09;9.70;99.90
2897;DHT22;1458;49.728;9.228;2024-02-04T09:13:38;9.80;99.90
2897;DHT22;1458;49.728;9.228;2024-02-04T09:16:06;10.00;99.60
2897;DHT22;1458;49.728;9.228;2024-02-04T09:18:36;10.00;98.40
2897;DHT22;1458;49.728;9.228;2024-02-04T09:21:03;10.00;97.30
2897;DHT22;1458;49.728;9.228;2024-02-04T09:23:31;10.00;97.10
2897;DHT22;1458;49.728;9.228;2024-02-04T09:25:58;10.10;97.20
2897;DHT22;1458;49.728;9.228;2024-02-04T09:28:26;10.10;96.40
2897;DHT22;1458;49.728;9.228;2024-02-04T09:30:53;10.10;96.00
2897;DHT22;1458;49.728;9.228;2024-02-04T09:33:20;10.20;95.90
2897;DHT22;1458;49.728;9.228;2024-02-04T09:35:49;10.30;95.10
2897;DHT22;1458;49.728;9.228;2024-02-04T09:38:17;10.30;95.60
2897;DHT22;1458;49.728;9.228;2024-02-04T09:40:44;10.20;94.90
2897;DHT22;1458;49.728;9.228;2024-02-04T09:43:12;10.20;94.70
2897;DHT22;1458;49.728;9.228;2024-02-04T09:45:40;10.20;94.90
2897;DHT22;1458;49.728;9.228;2024-02-04T09:48:08;10.10;95.10
2897;DHT22;1458;49.728;9.228;2024-02-04T09:50:36;10.10;95.30
2897;DHT22;1458;49.728;9.228;2024-02-04T09:53:08;10.20;95.40
2897;DHT22;1458;49.728;9.228;2024-02-04T09:55:37;10.20;95.40
2897;DHT22;1458;49.728;9.228;2024-02-04T09:58:05;10.30;95.20
2897;DHT22;1458;49.728;9.228;2024-02-04T10:00:33;10.40;94.70
2897;DHT22;1458;49.728;9.228;2024-02-04T10:03:02;10.40;93.20
2897;DHT22;1458;49.728;9.228;2024-02-04T10:05:31;10.40;93.10
2897;DHT22;1458;49.728;9.228;2024-02-04T10:07:58;10.40;93.90
2897;DHT22;1458;49.728;9.228;2024-02-04T10:10:27;10.50;92.50
2897;DHT22;1458;49.728;9.228;2024-02-04T10:12:56;10.40;92.80
2897;DHT22;1458;49.728;9.228;2024-02-04T10:15:23;10.50;93.60
2897;DHT22;1458;49.728;9.228;2024-02-04T10:17:50;10.70;93.10
2897;DHT22;1458;49.728;9.228;2024-02-04T10:20:19;10.90;92.30
2897;DHT22;1458;49.728;9.228;2024-02-04T10:22:46;10.90;91.60
2897;DHT22;1458;49.728;9.228;2024-02-04T10:25:15;10.90;91.00
2897;DHT22;1458;49.728;9.228;2024-02-04T10:27:44;10.70;90.90
2897;DHT22;1458;49.728;9.228;2024-02-04T10:30:13;10.70;91.10
2897;DHT22;1458;49.728;9.228;2024-02-04T10:32:41;10.80;90.80
2897;DHT22;1458;49.728;9.228;2024-02-04T10:35:11;10.80;91.30
2897;DHT22;1458;49.728;9.228;2024-02-04T10:37:38;10.80;91.20
2897;DHT22;1458;49.728;9.228;2024-02-04T10:40:07;10.70;91.10
2897;DHT22;1458;49.728;9.228;2024-02-04T10:42:35;10.80;91.50
2897;DHT22;1458;49.728;9.228;2024-02-04T10:45:08;10.90;91.50
2897;DHT22;1458;49.728;9.228;2024-02-04T10:47:37;11.00;90.00
2897;DHT22;1458;49.728;9.228;2024-02-04T10:50:06;11.00;91.10
2897;DHT22;1458;49.728;9.228;2024-02-04T10:52:36;11.00;89.00
2897;DHT22;1458;49.728;9.228;2024-02-04T10:55:08;11.10;88.70
2897;DHT22;1458;49.728;9.228;2024-02-04T10:57:37;11.10;88.70
2897;DHT22;1458;49.728;9.228;2024-02-04T11:00:07;11.20;88.60
2897;DHT22;1458;49.728;9.228;2024-02-04T11:02:38;11.40;87.90
2897;DHT22;1458;49.728;9.228;2024-02-04T11:05:07;11.40;86.10
2897;DHT22;1458;49.728;9.228;2024-02-04T11:07:35;11.50;85.30
2897;DHT22;1458;49.728;9.228;2024-02-04T11:10:03;11.50;86.60
2897;DHT22;1458;49.728;9.228;2024-02-04T11:12:32;11.30;86.30
2897;DHT22;1458;49.728;9.228;2024-02-04T11:15:02;11.30;86.60
2897;DHT22;1458;49.728;9.228;2024-02-04T11:17:57;11.20;86.40
2897;DHT22;1458;49.728;9.228;2024-02-04T11:20:56;11.40;87.60
2897;DHT22;1458;49.728;9.228;2024-02-04T11:23:41;11.60;85.80
2897;DHT22;1458;49.728;9.228;2024-02-04T11:26:17;11.50;85.30
2897;DHT22;1458;49.728;9.228;2024-02-04T11:28:45;11.40;86.40
2897;DHT22;1458;49.728;9.228;2024-02-04T11:31:17;11.40;87.20
2897;DHT22;1458;49.728;9.228;2024-02-04T11:33:47;11.40;87.30
2897;DHT22;1458;49.728;9.228;2024-02-04T11:36:17;11.20;86.20
2897;DHT22;1458;49.728;9.228;2024-02-04T11:38:48;11.10;87.40
2897;DHT22;1458;49.728;9.228;2024-02-04T11:41:22;11.00;87.50
2897;DHT22;1458;49.728;9.228;2024-02-04T11:43:52;10.90;88.50
2897;DHT22;1458;49.728;9.228;2024-02-04T11:46:20;11.10;88.80
2897;DHT22;1458;49.728;9.228;2024-02-04T11:48:53;11.40;87.20
2897;DHT22;1458;49.728;9.228;2024-02-04T11:51:22;11.40;85.70
2897;DHT22;1458;49.728;9.228;2024-02-04T11:53:50;11.60;85.60
2897;DHT22;1458;49.728;9.228;2024-02-04T11:56:18;11.30;84.40
2897;DHT22;1458;49.728;9.228;2024-02-04T11:58:46;11.40;84.70
2897;DHT22;1458;49.728;9.228;2024-02-04T12:01:14;11.40;85.30
2897;DHT22;1458;49.728;9.228;2024-02-04T12:03:41;11.30;85.20
2897;DHT22;1458;49.728;9.228;2024-02-04T12:06:10;11.20;85.10
2897;DHT22;1458;49.728;9.228;2024-02-04T12:08:41;11.30;86.90
2897;DHT22;1458;49.728;9.228;2024-02-04T12:11:09;11.30;86.10
2897;DHT22;1458;49.728;9.228;2024-02-04T12:13:36;11.10;86.40
2897;DHT22;1458;49.728;9.228;2024-02-04T12:16:06;11.10;86.80
2897;DHT22;1458;49.728;9.228;2024-02-04T12:18:35;11.00;88.20
2897;DHT22;1458;49.728;9.228;2024-02-04T12:21:02;11.00;88.60
2897;DHT22;1458;49.728;9.228;2024-02-04T12:23:31;10.90;88.60
2897;DHT22;1458;49.728;9.228;2024-02-04T12:26:00;11.00;89.30
2897;DHT22;1458;49.728;9.228;2024-02-04T12:28:27;11.00;89.60
2897;DHT22;1458;49.728;9.228;2024-02-04T12:30:55;10.90;89.70
2897;DHT22;1458;49.728;9.228;2024-02-04T12:33:24;10.80;90.10
2897;DHT22;1458;49.728;9.228;2024-02-04T12:35:51;10.70;90.50
2897;DHT22;1458;49.728;9.228;2024-02-04T12:38:21;10.70;90.50
2897;DHT22;1458;49.728;9.228;2024-02-04T12:40:50;10.80;90.90
2897;DHT22;1458;49.728;9.228;2024-02-04T12:43:18;10.90;89.90
2897;DHT22;1458;49.728;9.228;2024-02-04T12:45:45;11.10;89.90
2897;DHT22;1458;49.728;9.228;2024-02-04T12:48:15;11.20;88.40
2897;DHT22;1458;49.728;9.228;2024-02-04T12:50:46;11.20;88.00
2897;DHT22;1458;49.728;9.228;2024-02-04T12:53:14;11.20;88.70
2897;DHT22;1458;49.728;9.228;2024-02-04T12:55:41;11.10;88.80
2897;DHT22;1458;49.728;9.228;2024-02-04T12:58:12;11.00;87.50
2897;DHT22;1458;49.728;9.228;2024-02-04T13:00:43;11.00;88.70
2897;DHT22;1458;49.728;9.228;2024-02-04T13:03:10;11.00;88.70
2897;DHT22;1458;49.728;9.228;2024-02-04T13:05:41;11.10;86.80
2897;DHT22;1458;49.728;9.228;2024-02-04T13:08:09;11.00;88.00
2897;DHT22;1458;49.728;9.228;2024-02-04T13:10:36;11.20;87.90
2897;DHT22;1458;49.728;9.228;2024-02-04T13:13:06;11.20;88.20
2897;DHT22;1458;49.728;9.228;2024-02-04T13:15:38;11.30;88.90
2897;DHT22;1458;49.728;9.228;2024-02-04T13:18:07;11.20;87.00
2897;DHT22;1458;49.728;9.228;2024-02-04T13:20:36;11.30;86.80
2897;DHT22;1458;49.728;9.228;2024-02-04T13:23:04;11.20;86.40
2897;DHT22;1458;49.728;9.228;2024-02-04T13:25:31;11.20;86.50
2897;DHT22;1458;49.728;9.228;2024-02-04T13:27:59;11.10;86.30
2897;DHT22;1458;49.728;9.228;2024-02-04T13:30:26;11.10;87.70
2897;DHT22;1458;49.728;9.228;2024-02-04T13:32:55;11.10;88.30
2897;DHT22;1458;49.728;9.228;2024-02-04T13:35:24;11.30;86.80
2897;DHT22;1458;49.728;9.228;2024-02-04T13:37:51;11.40;86.20
2897;DHT22;1458;49.728;9.228;2024-02-04T13:40:21;11.20;87.40
2897;DHT22;1458;49.728;9.228;2024-02-04T13:42:49;11.10;88.60
2897;DHT22;1458;49.728;9.228;2024-02-04T13:45:17;11.20;88.70
2897;DHT22;1458;49.728;9.228;2024-02-04T13:47:45;11.20;87.20
2897;DHT22;1458;49.728;9.228;2024-02-04T13:50:14;11.20;88.00
2897;DHT22;1458;49.728;9.228;2024-02-04T13:52:42;11.20;88.60
2897;DHT22;1458;49.728;9.228;2024-02-04T13:55:09;11.30;86.60
2897;DHT22;1458;49.728;9.228;2024-02-04T13:57:37;11.20;88.70
2897;DHT22;1458;49.728;9.228;2024-02-04T14:00:05;11.10;88.20
2897;DHT22;1458;49.728;9.228;2024-02-04T14:02:33;11.10;88.60
2897;DHT22;1458;49.728;9.228;2024-02-04T14:05:01;11.10;88.00
2897;DHT22;1458;49.728;9.228;2024-02-04T14:07:30;11.10;88.00
2897;DHT22;1458;49.728;9.228;2024-02-04T14:09:57;11.20;88.40
2897;DHT22;1458;49.728;9.228;2024-02-04T14:12:25;11.30;87.90
2897;DHT22;1458;49.728;9.228;2024-02-04T14:14:54;11.40;86.90
2897;DHT22;1458;49.728;9.228;2024-02-04T14:17:23;11.20;86.30
2897;DHT22;1458;49.728;9.228;2024-02-04T14:19:50;11.30;87.00
2897;DHT22;1458;49.728;9.228;2024-02-04T14:22:17;11.40;86.20
2897;DHT22;1458;49.728;9.228;2024-02-04T14:24:49;11.40;87.20
2897;DHT22;1458;49.728;9.228;2024-02-04T14:27:16;11.40;86.00
2897;DHT22;1458;49.728;9.228;2024-02-04T14:29:43;11.30;87.00
2897;DHT22;1458;49.728;9.228;2024-02-04T14:32:11;11.40;86.30
2897;DHT22;1458;49.728;9.228;2024-02-04T14:34:38;11.40;86.70
2897;DHT22;1458;49.728;9.228;2024-02-04T14:37:05;11.30;87.00
2897;DHT22;1458;49.728;9.228;2024-02-04T14:39:33;11.30;87.30
2897;DHT22;1458;49.728;9.228;2024-02-04T14:42:03;11.30;87.90
2897;DHT22;1458;49.728;9.228;2024-02-04T14:44:30;11.30;87.10
2897;DHT22;1458;49.728;9.228;2024-02-04T14:46:58;11.40;86.60
2897;DHT22;1458;49.728;9.228;2024-02-04T14:49:25;11.40;85.20
2897;DHT22;1458;49.728;9.228;2024-02-04T14:51:53;11.60;87.00
2897;DHT22;1458;49.728;9.228;2024-02-04T14:54:20;11.50;85.30
2897;DHT22;1458;49.728;9.228;2024-02-04T14:56:48;11.50;85.30
2897;DHT22;1458;49.728;9.228;2024-02-04T14:59:18;11.60;85.90
2897;DHT22;1458;49.728;9.228;2024-02-04T15:01:46;11.60;84.50
2897;DHT22;1458;49.728;9.228;2024-02-04T15:04:14;11.60;85.40
2897;DHT22;1458;49.728;9.228;2024-02-04T15:06:42;11.40;86.00
2897;DHT22;1458;49.728;9.228;2024-02-04T15:09:10;11.40;86.40
2897;DHT22;1458;49.728;9.228;2024-02-04T15:11:38;11.40;86.60
2897;DHT22;1458;49.728;9.228;2024-02-04T15:14:06;11.30;86.80
2897;DHT22;1458;49.728;9.228;2024-02-04T15:16:36;11.20;87.40
2897;DHT22;1458;49.728;9.228;2024-02-04T15:19:05;11.10;88.50
2897;DHT22;1458;49.728;9.228;2024-02-04T15:21:35;11.10;88.50
2897;DHT22;1458;49.728;9.228;2024-02-04T15:24:03;11.00;89.30
2897;DHT22;1458;49.728;9.228;2024-02-04T15:26:32;11.10;89.80
2897;DHT22;1458;49.728;9.228;2024-02-04T15:29:02;11.00;90.20
2897;DHT22;1458;49.728;9.228;2024-02-04T15:31:30;11.00;90.10
2897;DHT22;1458;49.728;9.228;2024-02-04T15:34:01;10.90;90.50
2897;DHT22;1458;49.728;9.228;2024-02-04T15:36:31;10.90;90.80
2897;DHT22;1458;49.728;9.228;2024-02-04T15:38:58;10.90;90.70
2897;DHT22;1458;49.728;9.228;2024-02-04T15:41:25;10.90;91.00
2897;DHT22;1458;49.728;9.228;2024-02-04T15:43:53;10.80;91.60
2897;DHT22;1458;49.728;9.228;2024-02-04T15:46:22;10.80;92.10
2897;DHT22;1458;49.728;9.228;2024-02-04T15:48:52;10.80;92.00
2897;DHT22;1458;49.728;9.228;2024-02-04T15:51:22;10.80;91.80
2897;DHT22;1458;49.728;9.228;2024-02-04T15:53:50;10.80;92.10
2897;DHT22;1458;49.728;9.228;2024-02-04T15:56:19;10.80;92.10
2897;DHT22;1458;49.728;9.228;2024-02-04T15:58:52;10.70;92.30
2897;DHT22;1458;49.728;9.228;2024-02-04T16:01:25;10.70;92.50
2897;DHT22;1458;49.728;9.228;2024-02-04T16:03:53;10.70;92.70
2897;DHT22;1458;49.728;9.228;2024-02-04T16:06:23;10.60;92.90
2897;DHT22;1458;49.728;9.228;2024-02-04T16:08:51;10.60;93.00
2897;DHT22;1458;49.728;9.228;2024-02-04T16:11:19;10.60;93.00
2897;DHT22;1458;49.728;9.228;2024-02-04T16:13:50;10.60;93.00
2897;DHT22;1458;49.728;9.228;2024-02-04T16:16:20;10.60;93.20
2897;DHT22;1458;49.728;9.228;2024-02-04T16:18:49;10.60;93.20